This is the latest recevied weather packets stored in our database for station/object N5XL. If no packets are shown the sender has not sent any weather packets the latest 10 day(s).
| Time | Temp. | Humidity | Pressure | Rain* | Wind** | Luminosity | Snow |
|---|---|---|---|---|---|---|---|
| 1777338543 | 27.22° C | 17% | 1010.7 hPa | 0 mm | - | 62 W/m² | - |
| 1777335483 | 28.89° C | 13% | 1010.2 hPa | 0 mm | - | 203 W/m² | - |
| 1777333503 | 29.44° C | 11% | 1010.1 hPa | 0 mm | - | 346 W/m² | - |
| 1777331883 | 29.44° C | 15% | 1010.4 hPa | 0 mm | - | 249 W/m² | - |
| 1777328825 | 28.33° C | 14% | 1010.8 hPa | 0 mm | - | 590 W/m² | - |
| 1777322163 | 27.22° C | 16% | 1012.6 hPa | 0 mm | - | 819 W/m² | - |
| 1777321084 | 27.22° C | 15% | 1013 hPa | 0 mm | - | 840 W/m² | - |
| 1777318024 | 27.22° C | 19% | 1013.4 hPa | 0 mm | - | 858 W/m² | - |
| 1777316943 | 25.56° C | 22% | 1013.6 hPa | 0 mm | - | 851 W/m² | - |
| 1777315503 | 25.56° C | 19% | 1013.9 hPa | 0 mm | - | 838 W/m² | - |
| 1777309203 | 22.78° C | 27% | 1014.5 hPa | 0 mm | - | 660 W/m² | - |
| 1777308843 | 22.22° C | 24% | 1014.6 hPa | 0 mm | - | 644 W/m² | - |
| 1777307784 | 22.78° C | 24% | 1014.7 hPa | 0 mm | - | 595 W/m² | - |
| 1777305603 | 21.67° C | 28% | 1014.4 hPa | 0 mm | - | 484 W/m² | - |
| 1777303084 | 20.56° C | 28% | 1014.7 hPa | 0 mm | - | 342 W/m² | - |
| 1777302003 | 19.44° C | 29% | 1014.5 hPa | 0 mm | - | 273 W/m² | - |
| 1777291744 | 12.78° C | 36% | 1013 hPa | 0 mm | - | 0 W/m² | - |
| 1777287243 | 14.44° C | 31% | 1012.8 hPa | 0 mm | - | 0 W/m² | - |
| 1777284544 | 15° C | 30% | 1012.7 hPa | 0 mm | - | 0 W/m² | - |
| 1777278964 | 16.11° C | 32% | 1012.8 hPa | 0 mm | - | 0 W/m² | - |
| 1777275903 | 16.67° C | 33% | 1013.2 hPa | 0 mm | - | 0 W/m² | - |
| 1777274824 | 16.67° C | 32% | 1013.1 hPa | 0 mm | - | 0 W/m² | - |
| 1777273743 | 17.22° C | 31% | 1013 hPa | 0 mm | - | 0 W/m² | - |
| 1777271763 | 17.78° C | 32% | 1013 hPa | 0 mm | - | 0 W/m² | - |
| 1777270683 | 18.33° C | 29% | 1012.9 hPa | 0 mm | - | 0 W/m² | - |
* Rain latest hour (hover to see other rain measurements)
** Current wind speed in m/s (hover to see current wind gust speed)